<?xml version="1.0" encoding="UTF-8"?>
<gpx xmlns="http://www.topografix.com/GPX/1/1" xmlns:xsi="http://www.w3.org/2001/XMLSchema-instance" version="1.1" xsi:schemaLocation="http://www.topografix.com/GPX/1/1 http://www.topografix.com/GPX/1/1/gpx.xsd">
  <metadata>
    <name>OnondagaMan 2026 - Inermediate Aquabike</name>
  </metadata>
  <trk>
    <name>OnondagaMan 2026 - Inermediate Aquabike</name>
    <trkseg>
      <trkpt lat="42.967655" lon="-76.071113">
        <ele>203.995637</ele>
        <time>2026-05-30T08:38:00.000Z</time>
      </trkpt>
      <trkpt lat="42.967579" lon="-76.070873">
        <ele>203.995627</ele>
        <time>2026-05-30T08:38:02.000Z</time>
      </trkpt>
      <trkpt lat="42.967468" lon="-76.070698">
        <ele>203.995629</ele>
        <time>2026-05-30T08:38:04.000Z</time>
      </trkpt>
      <trkpt lat="42.966828" lon="-76.069968">
        <ele>204.668566</ele>
        <time>2026-05-30T08:38:13.000Z</time>
      </trkpt>
      <trkpt lat="42.966684" lon="-76.069838">
        <ele>205.073642</ele>
        <time>2026-05-30T08:38:15.000Z</time>
      </trkpt>
      <trkpt lat="42.966586" lon="-76.069817">
        <ele>205.333387</ele>
        <time>2026-05-30T08:38:16.000Z</time>
      </trkpt>
      <trkpt lat="42.966396" lon="-76.069819">
        <ele>205.782333</ele>
        <time>2026-05-30T08:38:18.000Z</time>
      </trkpt>
      <trkpt lat="42.965992" lon="-76.069985">
        <ele>206.733288</ele>
        <time>2026-05-30T08:38:23.000Z</time>
      </trkpt>
      <trkpt lat="42.965875" lon="-76.070085">
        <ele>207.094399</ele>
        <time>2026-05-30T08:38:25.000Z</time>
      </trkpt>
      <trkpt lat="42.965764" lon="-76.070225">
        <ele>207.428058</ele>
        <time>2026-05-30T08:38:27.000Z</time>
      </trkpt>
      <trkpt lat="42.965727" lon="-76.070334">
        <ele>207.630796</ele>
        <time>2026-05-30T08:38:28.000Z</time>
      </trkpt>
      <trkpt lat="42.965692" lon="-76.07043">
        <ele>207.825302</ele>
        <time>2026-05-30T08:38:29.000Z</time>
      </trkpt>
      <trkpt lat="42.965457" lon="-76.071614">
        <ele>208.779514</ele>
        <time>2026-05-30T08:38:39.000Z</time>
      </trkpt>
      <trkpt lat="42.966628" lon="-76.071987">
        <ele>209.62287</ele>
        <time>2026-05-30T08:38:52.000Z</time>
      </trkpt>
      <trkpt lat="42.967228" lon="-76.072188">
        <ele>209.626809</ele>
        <time>2026-05-30T08:38:59.000Z</time>
      </trkpt>
      <trkpt lat="42.967517" lon="-76.072321">
        <ele>209.628828</ele>
        <time>2026-05-30T08:39:02.000Z</time>
      </trkpt>
      <trkpt lat="42.967797" lon="-76.072462">
        <ele>209.63075</ele>
        <time>2026-05-30T08:39:05.000Z</time>
      </trkpt>
      <trkpt lat="42.968014" lon="-76.072637">
        <ele>209.632442</ele>
        <time>2026-05-30T08:39:08.000Z</time>
      </trkpt>
      <trkpt lat="42.968318" lon="-76.072924">
        <ele>209.630344</ele>
        <time>2026-05-30T08:39:12.000Z</time>
      </trkpt>
      <trkpt lat="42.969021" lon="-76.073755">
        <ele>209.611701</ele>
        <time>2026-05-30T08:39:22.000Z</time>
      </trkpt>
      <trkpt lat="42.969406" lon="-76.074167">
        <ele>209.601944</ele>
        <time>2026-05-30T08:39:27.000Z</time>
      </trkpt>
      <trkpt lat="42.969676" lon="-76.074407">
        <ele>209.512801</ele>
        <time>2026-05-30T08:39:31.000Z</time>
      </trkpt>
      <trkpt lat="42.97018" lon="-76.074709">
        <ele>209.090383</ele>
        <time>2026-05-30T08:39:37.000Z</time>
      </trkpt>
      <trkpt lat="42.970317" lon="-76.074758">
        <ele>208.982004</ele>
        <time>2026-05-30T08:39:39.000Z</time>
      </trkpt>
      <trkpt lat="42.972981" lon="-76.075616">
        <ele>206.869879</ele>
        <time>2026-05-30T08:40:09.000Z</time>
      </trkpt>
      <trkpt lat="42.973383" lon="-76.07567">
        <ele>206.237313</ele>
        <time>2026-05-30T08:40:13.000Z</time>
      </trkpt>
      <trkpt lat="42.974211" lon="-76.075716">
        <ele>204.835119</ele>
        <time>2026-05-30T08:40:22.000Z</time>
      </trkpt>
      <trkpt lat="42.975013" lon="-76.075706">
        <ele>203.432848</ele>
        <time>2026-05-30T08:40:31.000Z</time>
      </trkpt>
      <trkpt lat="42.975437" lon="-76.075654">
        <ele>202.632606</ele>
        <time>2026-05-30T08:40:36.000Z</time>
      </trkpt>
      <trkpt lat="42.976029" lon="-76.075568">
        <ele>201.489992</ele>
        <time>2026-05-30T08:40:43.000Z</time>
      </trkpt>
      <trkpt lat="42.976652" lon="-76.07539">
        <ele>200.279473</ele>
        <time>2026-05-30T08:40:50.000Z</time>
      </trkpt>
      <trkpt lat="42.978234" lon="-76.074762">
        <ele>198.585452</ele>
        <time>2026-05-30T08:41:08.000Z</time>
      </trkpt>
      <trkpt lat="42.978557" lon="-76.074673">
        <ele>198.260743</ele>
        <time>2026-05-30T08:41:12.000Z</time>
      </trkpt>
      <trkpt lat="42.978848" lon="-76.074642">
        <ele>197.977264</ele>
        <time>2026-05-30T08:41:15.000Z</time>
      </trkpt>
      <trkpt lat="42.979236" lon="-76.074643">
        <ele>197.627516</ele>
        <time>2026-05-30T08:41:19.000Z</time>
      </trkpt>
      <trkpt lat="42.98023" lon="-76.074701">
        <ele>196.67403</ele>
        <time>2026-05-30T08:41:30.000Z</time>
      </trkpt>
      <trkpt lat="42.980622" lon="-76.074736">
        <ele>196.249932</ele>
        <time>2026-05-30T08:41:34.000Z</time>
      </trkpt>
      <trkpt lat="42.980716" lon="-76.074729">
        <ele>196.145265</ele>
        <time>2026-05-30T08:41:35.000Z</time>
      </trkpt>
      <trkpt lat="42.980893" lon="-76.074737">
        <ele>195.956834</ele>
        <time>2026-05-30T08:41:37.000Z</time>
      </trkpt>
      <trkpt lat="42.981198" lon="-76.074699">
        <ele>195.619319</ele>
        <time>2026-05-30T08:41:40.000Z</time>
      </trkpt>
      <trkpt lat="42.981542" lon="-76.074606">
        <ele>195.23435</ele>
        <time>2026-05-30T08:41:44.000Z</time>
      </trkpt>
      <trkpt lat="42.982047" lon="-76.07441">
        <ele>194.739283</ele>
        <time>2026-05-30T08:41:50.000Z</time>
      </trkpt>
      <trkpt lat="42.982737" lon="-76.07411">
        <ele>194.385849</ele>
        <time>2026-05-30T08:41:58.000Z</time>
      </trkpt>
      <trkpt lat="42.982938" lon="-76.074007">
        <ele>194.277245</ele>
        <time>2026-05-30T08:42:00.000Z</time>
      </trkpt>
      <trkpt lat="42.984458" lon="-76.073233">
        <ele>193.664024</ele>
        <time>2026-05-30T08:42:18.000Z</time>
      </trkpt>
      <trkpt lat="42.985293" lon="-76.072782">
        <ele>193.400882</ele>
        <time>2026-05-30T08:42:28.000Z</time>
      </trkpt>
      <trkpt lat="42.985621" lon="-76.072597">
        <ele>192.897045</ele>
        <time>2026-05-30T08:42:32.000Z</time>
      </trkpt>
      <trkpt lat="42.985864" lon="-76.072452">
        <ele>192.52218</ele>
        <time>2026-05-30T08:42:35.000Z</time>
      </trkpt>
      <trkpt lat="42.986448" lon="-76.072135">
        <ele>191.648617</ele>
        <time>2026-05-30T08:42:42.000Z</time>
      </trkpt>
      <trkpt lat="42.986661" lon="-76.072054">
        <ele>191.324578</ele>
        <time>2026-05-30T08:42:44.000Z</time>
      </trkpt>
      <trkpt lat="42.986768" lon="-76.072014">
        <ele>191.157817</ele>
        <time>2026-05-30T08:42:45.000Z</time>
      </trkpt>
      <trkpt lat="42.987006" lon="-76.071946">
        <ele>190.822027</ele>
        <time>2026-05-30T08:42:48.000Z</time>
      </trkpt>
      <trkpt lat="42.988264" lon="-76.071759">
        <ele>188.501473</ele>
        <time>2026-05-30T08:43:02.000Z</time>
      </trkpt>
      <trkpt lat="42.991717" lon="-76.071423">
        <ele>183.289234</ele>
        <time>2026-05-30T08:43:40.000Z</time>
      </trkpt>
      <trkpt lat="42.991727" lon="-76.071219">
        <ele>183.087343</ele>
        <time>2026-05-30T08:43:42.000Z</time>
      </trkpt>
      <trkpt lat="42.991717" lon="-76.07105">
        <ele>182.912954</ele>
        <time>2026-05-30T08:43:43.000Z</time>
      </trkpt>
      <trkpt lat="42.991716" lon="-76.070853">
        <ele>182.707969</ele>
        <time>2026-05-30T08:43:45.000Z</time>
      </trkpt>
      <trkpt lat="42.99169" lon="-76.070677">
        <ele>182.519015</ele>
        <time>2026-05-30T08:43:46.000Z</time>
      </trkpt>
      <trkpt lat="42.991603" lon="-76.070305">
        <ele>183.347063</ele>
        <time>2026-05-30T08:43:49.000Z</time>
      </trkpt>
      <trkpt lat="42.99159" lon="-76.07024">
        <ele>183.583096</ele>
        <time>2026-05-30T08:43:50.000Z</time>
      </trkpt>
      <trkpt lat="42.991589" lon="-76.070196">
        <ele>183.744308</ele>
        <time>2026-05-30T08:43:50.000Z</time>
      </trkpt>
      <trkpt lat="42.991424" lon="-76.069691">
        <ele>185.819259</ele>
        <time>2026-05-30T08:43:55.000Z</time>
      </trkpt>
      <trkpt lat="42.991352" lon="-76.069525">
        <ele>186.511863</ele>
        <time>2026-05-30T08:43:57.000Z</time>
      </trkpt>
      <trkpt lat="42.99127" lon="-76.069359">
        <ele>187.248094</ele>
        <time>2026-05-30T08:43:59.000Z</time>
      </trkpt>
      <trkpt lat="42.991197" lon="-76.069267">
        <ele>187.762874</ele>
        <time>2026-05-30T08:44:00.000Z</time>
      </trkpt>
      <trkpt lat="42.991041" lon="-76.069084">
        <ele>188.817346</ele>
        <time>2026-05-30T08:44:02.000Z</time>
      </trkpt>
      <trkpt lat="42.990817" lon="-76.068877">
        <ele>190.106901</ele>
        <time>2026-05-30T08:44:05.000Z</time>
      </trkpt>
      <trkpt lat="42.990456" lon="-76.06865">
        <ele>192.818896</ele>
        <time>2026-05-30T08:44:09.000Z</time>
      </trkpt>
      <trkpt lat="42.990182" lon="-76.068426">
        <ele>196.285222</ele>
        <time>2026-05-30T08:44:13.000Z</time>
      </trkpt>
      <trkpt lat="42.990019" lon="-76.068217">
        <ele>198.59628</ele>
        <time>2026-05-30T08:44:15.000Z</time>
      </trkpt>
      <trkpt lat="42.989902" lon="-76.067998">
        <ele>200.756967</ele>
        <time>2026-05-30T08:44:17.000Z</time>
      </trkpt>
      <trkpt lat="42.989758" lon="-76.067656">
        <ele>203.825623</ele>
        <time>2026-05-30T08:44:20.000Z</time>
      </trkpt>
      <trkpt lat="42.989706" lon="-76.067439">
        <ele>205.470034</ele>
        <time>2026-05-30T08:44:22.000Z</time>
      </trkpt>
      <trkpt lat="42.989665" lon="-76.066981">
        <ele>209.151087</ele>
        <time>2026-05-30T08:44:26.000Z</time>
      </trkpt>
      <trkpt lat="42.98968" lon="-76.066621">
        <ele>211.455088</ele>
        <time>2026-05-30T08:44:29.000Z</time>
      </trkpt>
      <trkpt lat="42.989948" lon="-76.065498">
        <ele>218.124525</ele>
        <time>2026-05-30T08:44:39.000Z</time>
      </trkpt>
      <trkpt lat="42.990055" lon="-76.065021">
        <ele>220.862686</ele>
        <time>2026-05-30T08:44:43.000Z</time>
      </trkpt>
      <trkpt lat="42.990168" lon="-76.064432">
        <ele>224.255529</ele>
        <time>2026-05-30T08:44:48.000Z</time>
      </trkpt>
      <trkpt lat="42.990231" lon="-76.063726">
        <ele>226.767165</ele>
        <time>2026-05-30T08:44:54.000Z</time>
      </trkpt>
      <trkpt lat="42.990274" lon="-76.063346">
        <ele>228.070839</ele>
        <time>2026-05-30T08:44:57.000Z</time>
      </trkpt>
      <trkpt lat="42.990354" lon="-76.062433">
        <ele>231.234568</ele>
        <time>2026-05-30T08:45:04.000Z</time>
      </trkpt>
      <trkpt lat="42.990424" lon="-76.061833">
        <ele>233.090187</ele>
        <time>2026-05-30T08:45:09.000Z</time>
      </trkpt>
      <trkpt lat="42.990571" lon="-76.060278">
        <ele>236.1639</ele>
        <time>2026-05-30T08:45:22.000Z</time>
      </trkpt>
      <trkpt lat="42.990752" lon="-76.059022">
        <ele>238.144877</ele>
        <time>2026-05-30T08:45:32.000Z</time>
      </trkpt>
      <trkpt lat="42.991228" lon="-76.055722">
        <ele>239.866769</ele>
        <time>2026-05-30T08:45:59.000Z</time>
      </trkpt>
      <trkpt lat="42.991751" lon="-76.051765">
        <ele>235.546775</ele>
        <time>2026-05-30T08:46:32.000Z</time>
      </trkpt>
      <trkpt lat="42.991785" lon="-76.051388">
        <ele>235.280836</ele>
        <time>2026-05-30T08:46:35.000Z</time>
      </trkpt>
      <trkpt lat="42.991909" lon="-76.05045">
        <ele>234.615272</ele>
        <time>2026-05-30T08:46:43.000Z</time>
      </trkpt>
      <trkpt lat="42.992577" lon="-76.045133">
        <ele>236.895958</ele>
        <time>2026-05-30T08:47:27.000Z</time>
      </trkpt>
      <trkpt lat="42.992663" lon="-76.044432">
        <ele>238.10338</ele>
        <time>2026-05-30T08:47:33.000Z</time>
      </trkpt>
      <trkpt lat="42.992724" lon="-76.043506">
        <ele>239.792278</ele>
        <time>2026-05-30T08:47:41.000Z</time>
      </trkpt>
      <trkpt lat="42.992818" lon="-76.041082">
        <ele>245.361294</ele>
        <time>2026-05-30T08:48:01.000Z</time>
      </trkpt>
      <trkpt lat="42.992871" lon="-76.039092">
        <ele>250.30178</ele>
        <time>2026-05-30T08:48:17.000Z</time>
      </trkpt>
      <trkpt lat="42.992962" lon="-76.035594">
        <ele>258.488548</ele>
        <time>2026-05-30T08:48:45.000Z</time>
      </trkpt>
      <trkpt lat="42.992953" lon="-76.035181">
        <ele>259.378383</ele>
        <time>2026-05-30T08:48:48.000Z</time>
      </trkpt>
      <trkpt lat="42.992847" lon="-76.033974">
        <ele>260.851993</ele>
        <time>2026-05-30T08:48:58.000Z</time>
      </trkpt>
      <trkpt lat="42.992795" lon="-76.033315">
        <ele>261.663646</ele>
        <time>2026-05-30T08:49:03.000Z</time>
      </trkpt>
      <trkpt lat="42.992693" lon="-76.032311">
        <ele>262.235391</ele>
        <time>2026-05-30T08:49:11.000Z</time>
      </trkpt>
      <trkpt lat="42.992597" lon="-76.031274">
        <ele>262.146749</ele>
        <time>2026-05-30T08:49:20.000Z</time>
      </trkpt>
      <trkpt lat="42.992464" lon="-76.030022">
        <ele>261.893306</ele>
        <time>2026-05-30T08:49:30.000Z</time>
      </trkpt>
      <trkpt lat="42.992333" lon="-76.028826">
        <ele>261.299314</ele>
        <time>2026-05-30T08:49:40.000Z</time>
      </trkpt>
      <trkpt lat="42.992162" lon="-76.027159">
        <ele>260.252418</ele>
        <time>2026-05-30T08:49:54.000Z</time>
      </trkpt>
      <trkpt lat="42.992049" lon="-76.026023">
        <ele>259.38218</ele>
        <time>2026-05-30T08:50:03.000Z</time>
      </trkpt>
      <trkpt lat="42.99202" lon="-76.02575">
        <ele>259.165495</ele>
        <time>2026-05-30T08:50:05.000Z</time>
      </trkpt>
      <trkpt lat="42.991644" lon="-76.022054">
        <ele>255.368029</ele>
        <time>2026-05-30T08:50:35.000Z</time>
      </trkpt>
      <trkpt lat="42.991266" lon="-76.018045">
        <ele>251.128647</ele>
        <time>2026-05-30T08:51:08.000Z</time>
      </trkpt>
      <trkpt lat="42.990864" lon="-76.018167">
        <ele>253.104831</ele>
        <time>2026-05-30T08:51:13.000Z</time>
      </trkpt>
      <trkpt lat="42.990441" lon="-76.018256">
        <ele>255.262199</ele>
        <time>2026-05-30T08:51:18.000Z</time>
      </trkpt>
      <trkpt lat="42.990161" lon="-76.018261">
        <ele>256.591673</ele>
        <time>2026-05-30T08:51:21.000Z</time>
      </trkpt>
      <trkpt lat="42.989087" lon="-76.018101">
        <ele>262.457608</ele>
        <time>2026-05-30T08:51:33.000Z</time>
      </trkpt>
      <trkpt lat="42.986938" lon="-76.017796">
        <ele>275.76761</ele>
        <time>2026-05-30T08:51:57.000Z</time>
      </trkpt>
      <trkpt lat="42.983834" lon="-76.017553">
        <ele>296.433387</ele>
        <time>2026-05-30T08:52:32.000Z</time>
      </trkpt>
      <trkpt lat="42.982151" lon="-76.017395">
        <ele>305.859883</ele>
        <time>2026-05-30T08:52:51.000Z</time>
      </trkpt>
      <trkpt lat="42.979085" lon="-76.017155">
        <ele>321.159286</ele>
        <time>2026-05-30T08:53:25.000Z</time>
      </trkpt>
      <trkpt lat="42.977217" lon="-76.017">
        <ele>331.323958</ele>
        <time>2026-05-30T08:53:46.000Z</time>
      </trkpt>
      <trkpt lat="42.976287" lon="-76.016928">
        <ele>335.733327</ele>
        <time>2026-05-30T08:53:56.000Z</time>
      </trkpt>
      <trkpt lat="42.973924" lon="-76.016741">
        <ele>346.054071</ele>
        <time>2026-05-30T08:54:22.000Z</time>
      </trkpt>
      <trkpt lat="42.973164" lon="-76.016668">
        <ele>349.149049</ele>
        <time>2026-05-30T08:54:30.000Z</time>
      </trkpt>
      <trkpt lat="42.971513" lon="-76.016509">
        <ele>355.434906</ele>
        <time>2026-05-30T08:54:48.000Z</time>
      </trkpt>
      <trkpt lat="42.968533" lon="-76.016286">
        <ele>361.802435</ele>
        <time>2026-05-30T08:55:21.000Z</time>
      </trkpt>
      <trkpt lat="42.968152" lon="-76.016282">
        <ele>362.548191</ele>
        <time>2026-05-30T08:55:25.000Z</time>
      </trkpt>
      <trkpt lat="42.967821" lon="-76.016339">
        <ele>363.479208</ele>
        <time>2026-05-30T08:55:29.000Z</time>
      </trkpt>
      <trkpt lat="42.96739" lon="-76.016519">
        <ele>364.877916</ele>
        <time>2026-05-30T08:55:34.000Z</time>
      </trkpt>
      <trkpt lat="42.967043" lon="-76.016736">
        <ele>366.033546</ele>
        <time>2026-05-30T08:55:38.000Z</time>
      </trkpt>
      <trkpt lat="42.966221" lon="-76.017317">
        <ele>369.593932</ele>
        <time>2026-05-30T08:55:48.000Z</time>
      </trkpt>
      <trkpt lat="42.964017" lon="-76.018993">
        <ele>385.747555</ele>
        <time>2026-05-30T08:56:16.000Z</time>
      </trkpt>
      <trkpt lat="42.963354" lon="-76.019501">
        <ele>390.578992</ele>
        <time>2026-05-30T08:56:24.000Z</time>
      </trkpt>
      <trkpt lat="42.961534" lon="-76.020864">
        <ele>401.715395</ele>
        <time>2026-05-30T08:56:47.000Z</time>
      </trkpt>
      <trkpt lat="42.96143" lon="-76.02091">
        <ele>402.493189</ele>
        <time>2026-05-30T08:56:48.000Z</time>
      </trkpt>
      <trkpt lat="42.960991" lon="-76.021066">
        <ele>405.34017</ele>
        <time>2026-05-30T08:56:53.000Z</time>
      </trkpt>
      <trkpt lat="42.960545" lon="-76.021104">
        <ele>408.273895</ele>
        <time>2026-05-30T08:56:58.000Z</time>
      </trkpt>
      <trkpt lat="42.960127" lon="-76.021094">
        <ele>410.926026</ele>
        <time>2026-05-30T08:57:03.000Z</time>
      </trkpt>
      <trkpt lat="42.95938" lon="-76.021027">
        <ele>415.808198</ele>
        <time>2026-05-30T08:57:11.000Z</time>
      </trkpt>
      <trkpt lat="42.959094" lon="-76.020995">
        <ele>417.694263</ele>
        <time>2026-05-30T08:57:14.000Z</time>
      </trkpt>
      <trkpt lat="42.957144" lon="-76.020828">
        <ele>427.992092</ele>
        <time>2026-05-30T08:57:36.000Z</time>
      </trkpt>
      <trkpt lat="42.956376" lon="-76.020766">
        <ele>431.158678</ele>
        <time>2026-05-30T08:57:45.000Z</time>
      </trkpt>
      <trkpt lat="42.955972" lon="-76.02072">
        <ele>432.321761</ele>
        <time>2026-05-30T08:57:50.000Z</time>
      </trkpt>
      <trkpt lat="42.954989" lon="-76.020627">
        <ele>435.102403</ele>
        <time>2026-05-30T08:58:01.000Z</time>
      </trkpt>
      <trkpt lat="42.953539" lon="-76.020504">
        <ele>440.955959</ele>
        <time>2026-05-30T08:58:17.000Z</time>
      </trkpt>
      <trkpt lat="42.953258" lon="-76.020498">
        <ele>442.319119</ele>
        <time>2026-05-30T08:58:20.000Z</time>
      </trkpt>
      <trkpt lat="42.951904" lon="-76.020348">
        <ele>448.545695</ele>
        <time>2026-05-30T08:58:35.000Z</time>
      </trkpt>
      <trkpt lat="42.951808" lon="-76.020349">
        <ele>448.973605</ele>
        <time>2026-05-30T08:58:36.000Z</time>
      </trkpt>
      <trkpt lat="42.950266" lon="-76.020193">
        <ele>454.226967</ele>
        <time>2026-05-30T08:58:53.000Z</time>
      </trkpt>
      <trkpt lat="42.950068" lon="-76.020181">
        <ele>454.623857</ele>
        <time>2026-05-30T08:58:55.000Z</time>
      </trkpt>
      <trkpt lat="42.94991" lon="-76.020162">
        <ele>454.926875</ele>
        <time>2026-05-30T08:58:57.000Z</time>
      </trkpt>
      <trkpt lat="42.949883" lon="-76.020149">
        <ele>455.001199</ele>
        <time>2026-05-30T08:58:57.000Z</time>
      </trkpt>
      <trkpt lat="42.949359" lon="-76.020102">
        <ele>456.010683</ele>
        <time>2026-05-30T08:59:03.000Z</time>
      </trkpt>
      <trkpt lat="42.948663" lon="-76.020031">
        <ele>456.688468</ele>
        <time>2026-05-30T08:59:11.000Z</time>
      </trkpt>
      <trkpt lat="42.948142" lon="-76.020012">
        <ele>456.985552</ele>
        <time>2026-05-30T08:59:17.000Z</time>
      </trkpt>
      <trkpt lat="42.947565" lon="-76.019947">
        <ele>457.317629</ele>
        <time>2026-05-30T08:59:23.000Z</time>
      </trkpt>
      <trkpt lat="42.946489" lon="-76.019854">
        <ele>458.290241</ele>
        <time>2026-05-30T08:59:35.000Z</time>
      </trkpt>
      <trkpt lat="42.944141" lon="-76.019682">
        <ele>460.750294</ele>
        <time>2026-05-30T09:00:01.000Z</time>
      </trkpt>
      <trkpt lat="42.941927" lon="-76.019449">
        <ele>463.781322</ele>
        <time>2026-05-30T09:00:26.000Z</time>
      </trkpt>
      <trkpt lat="42.939041" lon="-76.019212">
        <ele>467.999515</ele>
        <time>2026-05-30T09:00:58.000Z</time>
      </trkpt>
      <trkpt lat="42.938399" lon="-76.019163">
        <ele>468.729402</ele>
        <time>2026-05-30T09:01:05.000Z</time>
      </trkpt>
      <trkpt lat="42.936079" lon="-76.018962">
        <ele>467.775389</ele>
        <time>2026-05-30T09:01:31.000Z</time>
      </trkpt>
      <trkpt lat="42.933592" lon="-76.01874">
        <ele>466.979308</ele>
        <time>2026-05-30T09:01:59.000Z</time>
      </trkpt>
      <trkpt lat="42.932603" lon="-76.018646">
        <ele>466.560098</ele>
        <time>2026-05-30T09:02:10.000Z</time>
      </trkpt>
      <trkpt lat="42.930869" lon="-76.018493">
        <ele>466.0525</ele>
        <time>2026-05-30T09:02:29.000Z</time>
      </trkpt>
      <trkpt lat="42.929783" lon="-76.018408">
        <ele>466.891402</ele>
        <time>2026-05-30T09:02:41.000Z</time>
      </trkpt>
      <trkpt lat="42.926409" lon="-76.018078">
        <ele>475.6666</ele>
        <time>2026-05-30T09:03:19.000Z</time>
      </trkpt>
      <trkpt lat="42.92445" lon="-76.017882">
        <ele>485.477572</ele>
        <time>2026-05-30T09:03:41.000Z</time>
      </trkpt>
      <trkpt lat="42.92348" lon="-76.017797">
        <ele>488.525714</ele>
        <time>2026-05-30T09:03:52.000Z</time>
      </trkpt>
      <trkpt lat="42.92312" lon="-76.017773">
        <ele>488.965033</ele>
        <time>2026-05-30T09:03:56.000Z</time>
      </trkpt>
      <trkpt lat="42.920855" lon="-76.017628">
        <ele>490.128584</ele>
        <time>2026-05-30T09:04:21.000Z</time>
      </trkpt>
      <trkpt lat="42.916668" lon="-76.017249">
        <ele>494.067348</ele>
        <time>2026-05-30T09:05:08.000Z</time>
      </trkpt>
      <trkpt lat="42.913293" lon="-76.016973">
        <ele>495.937558</ele>
        <time>2026-05-30T09:05:46.000Z</time>
      </trkpt>
      <trkpt lat="42.912548" lon="-76.016892">
        <ele>497.505582</ele>
        <time>2026-05-30T09:05:54.000Z</time>
      </trkpt>
      <trkpt lat="42.912129" lon="-76.016859">
        <ele>498.441758</ele>
        <time>2026-05-30T09:05:59.000Z</time>
      </trkpt>
      <trkpt lat="42.909713" lon="-76.016659">
        <ele>502.338669</ele>
        <time>2026-05-30T09:06:26.000Z</time>
      </trkpt>
      <trkpt lat="42.908475" lon="-76.016555">
        <ele>502.416567</ele>
        <time>2026-05-30T09:06:40.000Z</time>
      </trkpt>
      <trkpt lat="42.908398" lon="-76.01654">
        <ele>502.417053</ele>
        <time>2026-05-30T09:06:41.000Z</time>
      </trkpt>
      <trkpt lat="42.907931" lon="-76.016495">
        <ele>502.419677</ele>
        <time>2026-05-30T09:06:46.000Z</time>
      </trkpt>
      <trkpt lat="42.90586" lon="-76.016309">
        <ele>508.053141</ele>
        <time>2026-05-30T09:07:09.000Z</time>
      </trkpt>
      <trkpt lat="42.905376" lon="-76.016269">
        <ele>508.495207</ele>
        <time>2026-05-30T09:07:14.000Z</time>
      </trkpt>
      <trkpt lat="42.903228" lon="-76.016076">
        <ele>509.662568</ele>
        <time>2026-05-30T09:07:38.000Z</time>
      </trkpt>
      <trkpt lat="42.903043" lon="-76.01607">
        <ele>509.694198</ele>
        <time>2026-05-30T09:07:40.000Z</time>
      </trkpt>
      <trkpt lat="42.90295" lon="-76.01606">
        <ele>509.707718</ele>
        <time>2026-05-30T09:07:41.000Z</time>
      </trkpt>
      <trkpt lat="42.900601" lon="-76.01584">
        <ele>511.667608</ele>
        <time>2026-05-30T09:08:07.000Z</time>
      </trkpt>
      <trkpt lat="42.900435" lon="-76.015836">
        <ele>511.569735</ele>
        <time>2026-05-30T09:08:09.000Z</time>
      </trkpt>
      <trkpt lat="42.900189" lon="-76.015812">
        <ele>511.433138</ele>
        <time>2026-05-30T09:08:12.000Z</time>
      </trkpt>
      <trkpt lat="42.899703" lon="-76.01578">
        <ele>511.145838</ele>
        <time>2026-05-30T09:08:17.000Z</time>
      </trkpt>
      <trkpt lat="42.899219" lon="-76.015735">
        <ele>510.851314</ele>
        <time>2026-05-30T09:08:22.000Z</time>
      </trkpt>
      <trkpt lat="42.899024" lon="-76.01577">
        <ele>510.742056</ele>
        <time>2026-05-30T09:08:24.000Z</time>
      </trkpt>
      <trkpt lat="42.898851" lon="-76.015588">
        <ele>510.512615</ele>
        <time>2026-05-30T09:08:26.000Z</time>
      </trkpt>
      <trkpt lat="42.898665" lon="-76.015463">
        <ele>510.102225</ele>
        <time>2026-05-30T09:08:28.000Z</time>
      </trkpt>
      <trkpt lat="42.897794" lon="-76.014968">
        <ele>508.388779</ele>
        <time>2026-05-30T09:08:38.000Z</time>
      </trkpt>
      <trkpt lat="42.897496" lon="-76.015601">
        <ele>507.37801</ele>
        <time>2026-05-30T09:08:44.000Z</time>
      </trkpt>
      <trkpt lat="42.896945" lon="-76.016805">
        <ele>502.0923</ele>
        <time>2026-05-30T09:08:56.000Z</time>
      </trkpt>
      <trkpt lat="42.896767" lon="-76.01725">
        <ele>500.198018</ele>
        <time>2026-05-30T09:09:00.000Z</time>
      </trkpt>
      <trkpt lat="42.896538" lon="-76.018066">
        <ele>496.916269</ele>
        <time>2026-05-30T09:09:07.000Z</time>
      </trkpt>
      <trkpt lat="42.896439" lon="-76.01861">
        <ele>494.794245</ele>
        <time>2026-05-30T09:09:12.000Z</time>
      </trkpt>
      <trkpt lat="42.896365" lon="-76.019073">
        <ele>493.035508</ele>
        <time>2026-05-30T09:09:16.000Z</time>
      </trkpt>
      <trkpt lat="42.896321" lon="-76.019496">
        <ele>491.399296</ele>
        <time>2026-05-30T09:09:19.000Z</time>
      </trkpt>
      <trkpt lat="42.896272" lon="-76.020415">
        <ele>487.857025</ele>
        <time>2026-05-30T09:09:27.000Z</time>
      </trkpt>
      <trkpt lat="42.896142" lon="-76.023535">
        <ele>475.077844</ele>
        <time>2026-05-30T09:09:52.000Z</time>
      </trkpt>
      <trkpt lat="42.895943" lon="-76.027767">
        <ele>457.046156</ele>
        <time>2026-05-30T09:10:27.000Z</time>
      </trkpt>
      <trkpt lat="42.895858" lon="-76.029494">
        <ele>450.36677</ele>
        <time>2026-05-30T09:10:41.000Z</time>
      </trkpt>
      <trkpt lat="42.895832" lon="-76.029709">
        <ele>449.4929</ele>
        <time>2026-05-30T09:10:43.000Z</time>
      </trkpt>
      <trkpt lat="42.89578" lon="-76.030131">
        <ele>448.328128</ele>
        <time>2026-05-30T09:10:46.000Z</time>
      </trkpt>
      <trkpt lat="42.895765" lon="-76.030304">
        <ele>448.076463</ele>
        <time>2026-05-30T09:10:47.000Z</time>
      </trkpt>
      <trkpt lat="42.8957" lon="-76.030624">
        <ele>447.649009</ele>
        <time>2026-05-30T09:10:50.000Z</time>
      </trkpt>
      <trkpt lat="42.895614" lon="-76.031052">
        <ele>447.061401</ele>
        <time>2026-05-30T09:10:54.000Z</time>
      </trkpt>
      <trkpt lat="42.895369" lon="-76.031807">
        <ele>445.988787</ele>
        <time>2026-05-30T09:11:01.000Z</time>
      </trkpt>
      <trkpt lat="42.895276" lon="-76.032141">
        <ele>445.525671</ele>
        <time>2026-05-30T09:11:04.000Z</time>
      </trkpt>
      <trkpt lat="42.895269" lon="-76.032212">
        <ele>445.430471</ele>
        <time>2026-05-30T09:11:05.000Z</time>
      </trkpt>
      <trkpt lat="42.895043" lon="-76.032912">
        <ele>444.791423</ele>
        <time>2026-05-30T09:11:11.000Z</time>
      </trkpt>
      <trkpt lat="42.894047" lon="-76.036128">
        <ele>442.154849</ele>
        <time>2026-05-30T09:11:39.000Z</time>
      </trkpt>
      <trkpt lat="42.893905" lon="-76.036751">
        <ele>441.700848</ele>
        <time>2026-05-30T09:11:44.000Z</time>
      </trkpt>
      <trkpt lat="42.893794" lon="-76.037378">
        <ele>442.07469</ele>
        <time>2026-05-30T09:11:49.000Z</time>
      </trkpt>
      <trkpt lat="42.893743" lon="-76.037837">
        <ele>442.408078</ele>
        <time>2026-05-30T09:11:53.000Z</time>
      </trkpt>
      <trkpt lat="42.893618" lon="-76.039897">
        <ele>444.146318</ele>
        <time>2026-05-30T09:12:10.000Z</time>
      </trkpt>
      <trkpt lat="42.89357" lon="-76.041059">
        <ele>445.380846</ele>
        <time>2026-05-30T09:12:19.000Z</time>
      </trkpt>
      <trkpt lat="42.893471" lon="-76.042734">
        <ele>445.023891</ele>
        <time>2026-05-30T09:12:33.000Z</time>
      </trkpt>
      <trkpt lat="42.893373" lon="-76.04457">
        <ele>442.130703</ele>
        <time>2026-05-30T09:12:48.000Z</time>
      </trkpt>
      <trkpt lat="42.893356" lon="-76.045135">
        <ele>440.19579</ele>
        <time>2026-05-30T09:12:53.000Z</time>
      </trkpt>
      <trkpt lat="42.893241" lon="-76.04691">
        <ele>434.172793</ele>
        <time>2026-05-30T09:13:08.000Z</time>
      </trkpt>
      <trkpt lat="42.893226" lon="-76.047351">
        <ele>432.786318</ele>
        <time>2026-05-30T09:13:12.000Z</time>
      </trkpt>
      <trkpt lat="42.893172" lon="-76.048506">
        <ele>429.102</ele>
        <time>2026-05-30T09:13:21.000Z</time>
      </trkpt>
      <trkpt lat="42.893089" lon="-76.049936">
        <ele>424.368672</ele>
        <time>2026-05-30T09:13:33.000Z</time>
      </trkpt>
      <trkpt lat="42.893076" lon="-76.050671">
        <ele>421.855605</ele>
        <time>2026-05-30T09:13:39.000Z</time>
      </trkpt>
      <trkpt lat="42.893067" lon="-76.051228">
        <ele>420.025314</ele>
        <time>2026-05-30T09:13:44.000Z</time>
      </trkpt>
      <trkpt lat="42.893128" lon="-76.051842">
        <ele>417.103129</ele>
        <time>2026-05-30T09:13:49.000Z</time>
      </trkpt>
      <trkpt lat="42.893803" lon="-76.057239">
        <ele>385.980755</ele>
        <time>2026-05-30T09:14:34.000Z</time>
      </trkpt>
      <trkpt lat="42.89388" lon="-76.057942">
        <ele>382.662937</ele>
        <time>2026-05-30T09:14:40.000Z</time>
      </trkpt>
      <trkpt lat="42.89392" lon="-76.058767">
        <ele>378.7473</ele>
        <time>2026-05-30T09:14:47.000Z</time>
      </trkpt>
      <trkpt lat="42.893894" lon="-76.059954">
        <ele>376.173742</ele>
        <time>2026-05-30T09:14:57.000Z</time>
      </trkpt>
      <trkpt lat="42.893846" lon="-76.060373">
        <ele>375.23113</ele>
        <time>2026-05-30T09:15:00.000Z</time>
      </trkpt>
      <trkpt lat="42.892798" lon="-76.067447">
        <ele>361.446735</ele>
        <time>2026-05-30T09:15:59.000Z</time>
      </trkpt>
      <trkpt lat="42.892517" lon="-76.069565">
        <ele>356.320862</ele>
        <time>2026-05-30T09:16:17.000Z</time>
      </trkpt>
      <trkpt lat="42.892374" lon="-76.070288">
        <ele>354.35476</ele>
        <time>2026-05-30T09:16:23.000Z</time>
      </trkpt>
      <trkpt lat="42.89221" lon="-76.070799">
        <ele>352.856131</ele>
        <time>2026-05-30T09:16:28.000Z</time>
      </trkpt>
      <trkpt lat="42.891892" lon="-76.071643">
        <ele>348.407948</ele>
        <time>2026-05-30T09:16:36.000Z</time>
      </trkpt>
      <trkpt lat="42.891441" lon="-76.072488">
        <ele>343.392333</ele>
        <time>2026-05-30T09:16:45.000Z</time>
      </trkpt>
      <trkpt lat="42.888743" lon="-76.076981">
        <ele>300.553109</ele>
        <time>2026-05-30T09:17:33.000Z</time>
      </trkpt>
      <trkpt lat="42.888266" lon="-76.077797">
        <ele>294.695874</ele>
        <time>2026-05-30T09:17:42.000Z</time>
      </trkpt>
      <trkpt lat="42.887865" lon="-76.078422">
        <ele>290.034984</ele>
        <time>2026-05-30T09:17:49.000Z</time>
      </trkpt>
      <trkpt lat="42.887387" lon="-76.079064">
        <ele>284.413409</ele>
        <time>2026-05-30T09:17:56.000Z</time>
      </trkpt>
      <trkpt lat="42.887176" lon="-76.079318">
        <ele>282.061721</ele>
        <time>2026-05-30T09:17:59.000Z</time>
      </trkpt>
      <trkpt lat="42.886715" lon="-76.07979">
        <ele>277.320394</ele>
        <time>2026-05-30T09:18:05.000Z</time>
      </trkpt>
      <trkpt lat="42.886351" lon="-76.080151">
        <ele>273.71605</ele>
        <time>2026-05-30T09:18:10.000Z</time>
      </trkpt>
      <trkpt lat="42.885799" lon="-76.080586">
        <ele>270.280145</ele>
        <time>2026-05-30T09:18:17.000Z</time>
      </trkpt>
      <trkpt lat="42.885352" lon="-76.0809">
        <ele>267.562526</ele>
        <time>2026-05-30T09:18:23.000Z</time>
      </trkpt>
      <trkpt lat="42.884546" lon="-76.081309">
        <ele>264.129205</ele>
        <time>2026-05-30T09:18:33.000Z</time>
      </trkpt>
      <trkpt lat="42.880809" lon="-76.082776">
        <ele>262.813348</ele>
        <time>2026-05-30T09:19:16.000Z</time>
      </trkpt>
      <trkpt lat="42.880711" lon="-76.082827">
        <ele>262.875729</ele>
        <time>2026-05-30T09:19:17.000Z</time>
      </trkpt>
      <trkpt lat="42.878933" lon="-76.083544">
        <ele>264.955929</ele>
        <time>2026-05-30T09:19:38.000Z</time>
      </trkpt>
      <trkpt lat="42.878453" lon="-76.083833">
        <ele>265.896394</ele>
        <time>2026-05-30T09:19:44.000Z</time>
      </trkpt>
      <trkpt lat="42.878139" lon="-76.084068">
        <ele>266.521457</ele>
        <time>2026-05-30T09:19:48.000Z</time>
      </trkpt>
      <trkpt lat="42.878127" lon="-76.084075">
        <ele>266.537806</ele>
        <time>2026-05-30T09:19:48.000Z</time>
      </trkpt>
      <trkpt lat="42.877803" lon="-76.084456">
        <ele>267.532843</ele>
        <time>2026-05-30T09:19:53.000Z</time>
      </trkpt>
      <trkpt lat="42.877619" lon="-76.084734">
        <ele>268.210118</ele>
        <time>2026-05-30T09:19:56.000Z</time>
      </trkpt>
      <trkpt lat="42.877452" lon="-76.08499">
        <ele>268.847319</ele>
        <time>2026-05-30T09:19:59.000Z</time>
      </trkpt>
      <trkpt lat="42.877237" lon="-76.085431">
        <ele>269.829483</ele>
        <time>2026-05-30T09:20:03.000Z</time>
      </trkpt>
      <trkpt lat="42.877163" lon="-76.08566">
        <ele>270.295504</ele>
        <time>2026-05-30T09:20:05.000Z</time>
      </trkpt>
      <trkpt lat="42.877034" lon="-76.086065">
        <ele>271.106408</ele>
        <time>2026-05-30T09:20:09.000Z</time>
      </trkpt>
      <trkpt lat="42.876916" lon="-76.086642">
        <ele>272.482152</ele>
        <time>2026-05-30T09:20:14.000Z</time>
      </trkpt>
      <trkpt lat="42.876871" lon="-76.087122">
        <ele>273.667679</ele>
        <time>2026-05-30T09:20:18.000Z</time>
      </trkpt>
      <trkpt lat="42.876879" lon="-76.087743">
        <ele>275.217962</ele>
        <time>2026-05-30T09:20:23.000Z</time>
      </trkpt>
      <trkpt lat="42.876915" lon="-76.088126">
        <ele>276.154428</ele>
        <time>2026-05-30T09:20:26.000Z</time>
      </trkpt>
      <trkpt lat="42.877072" lon="-76.088843">
        <ele>277.652825</ele>
        <time>2026-05-30T09:20:32.000Z</time>
      </trkpt>
      <trkpt lat="42.877291" lon="-76.089515">
        <ele>278.258896</ele>
        <time>2026-05-30T09:20:38.000Z</time>
      </trkpt>
      <trkpt lat="42.877561" lon="-76.089652">
        <ele>278.578463</ele>
        <time>2026-05-30T09:20:41.000Z</time>
      </trkpt>
      <trkpt lat="42.878377" lon="-76.089907">
        <ele>279.443466</ele>
        <time>2026-05-30T09:20:50.000Z</time>
      </trkpt>
      <trkpt lat="42.880095" lon="-76.090115">
        <ele>275.240703</ele>
        <time>2026-05-30T09:21:09.000Z</time>
      </trkpt>
      <trkpt lat="42.8804" lon="-76.09013">
        <ele>274.574404</ele>
        <time>2026-05-30T09:21:12.000Z</time>
      </trkpt>
      <trkpt lat="42.880972" lon="-76.090083">
        <ele>273.351454</ele>
        <time>2026-05-30T09:21:18.000Z</time>
      </trkpt>
      <trkpt lat="42.882713" lon="-76.089875">
        <ele>270.017125</ele>
        <time>2026-05-30T09:21:37.000Z</time>
      </trkpt>
      <trkpt lat="42.883157" lon="-76.089803">
        <ele>269.291908</ele>
        <time>2026-05-30T09:21:42.000Z</time>
      </trkpt>
      <trkpt lat="42.883834" lon="-76.089651">
        <ele>268.231591</ele>
        <time>2026-05-30T09:21:50.000Z</time>
      </trkpt>
      <trkpt lat="42.885025" lon="-76.089301">
        <ele>266.741182</ele>
        <time>2026-05-30T09:22:04.000Z</time>
      </trkpt>
      <trkpt lat="42.887927" lon="-76.088583">
        <ele>264.811982</ele>
        <time>2026-05-30T09:22:37.000Z</time>
      </trkpt>
      <trkpt lat="42.889221" lon="-76.088223">
        <ele>264.270095</ele>
        <time>2026-05-30T09:22:52.000Z</time>
      </trkpt>
      <trkpt lat="42.891118" lon="-76.087661">
        <ele>263.551248</ele>
        <time>2026-05-30T09:23:14.000Z</time>
      </trkpt>
      <trkpt lat="42.891612" lon="-76.087427">
        <ele>263.384459</ele>
        <time>2026-05-30T09:23:20.000Z</time>
      </trkpt>
      <trkpt lat="42.891876" lon="-76.087265">
        <ele>263.294436</ele>
        <time>2026-05-30T09:23:23.000Z</time>
      </trkpt>
      <trkpt lat="42.893194" lon="-76.086207">
        <ele>263.345076</ele>
        <time>2026-05-30T09:23:40.000Z</time>
      </trkpt>
      <trkpt lat="42.89462" lon="-76.08503">
        <ele>263.643567</ele>
        <time>2026-05-30T09:23:59.000Z</time>
      </trkpt>
      <trkpt lat="42.895596" lon="-76.084289">
        <ele>263.593502</ele>
        <time>2026-05-30T09:24:11.000Z</time>
      </trkpt>
      <trkpt lat="42.897349" lon="-76.083005">
        <ele>260.987907</ele>
        <time>2026-05-30T09:24:33.000Z</time>
      </trkpt>
      <trkpt lat="42.897869" lon="-76.08264">
        <ele>260.544621</ele>
        <time>2026-05-30T09:24:40.000Z</time>
      </trkpt>
      <trkpt lat="42.898087" lon="-76.082556">
        <ele>260.378681</ele>
        <time>2026-05-30T09:24:43.000Z</time>
      </trkpt>
      <trkpt lat="42.898437" lon="-76.08247">
        <ele>260.110661</ele>
        <time>2026-05-30T09:24:47.000Z</time>
      </trkpt>
      <trkpt lat="42.899648" lon="-76.082334">
        <ele>259.814188</ele>
        <time>2026-05-30T09:25:01.000Z</time>
      </trkpt>
      <trkpt lat="42.900004" lon="-76.082251">
        <ele>259.809019</ele>
        <time>2026-05-30T09:25:05.000Z</time>
      </trkpt>
      <trkpt lat="42.90054" lon="-76.082009">
        <ele>259.800761</ele>
        <time>2026-05-30T09:25:11.000Z</time>
      </trkpt>
      <trkpt lat="42.901237" lon="-76.081481">
        <ele>259.842448</ele>
        <time>2026-05-30T09:25:20.000Z</time>
      </trkpt>
      <trkpt lat="42.903032" lon="-76.080014">
        <ele>260.272923</ele>
        <time>2026-05-30T09:25:43.000Z</time>
      </trkpt>
      <trkpt lat="42.903475" lon="-76.079711">
        <ele>260.4448</ele>
        <time>2026-05-30T09:25:49.000Z</time>
      </trkpt>
      <trkpt lat="42.906309" lon="-76.077878">
        <ele>262.858803</ele>
        <time>2026-05-30T09:26:24.000Z</time>
      </trkpt>
      <trkpt lat="42.906745" lon="-76.077554">
        <ele>263.244586</ele>
        <time>2026-05-30T09:26:30.000Z</time>
      </trkpt>
      <trkpt lat="42.907124" lon="-76.077194">
        <ele>263.270458</ele>
        <time>2026-05-30T09:26:35.000Z</time>
      </trkpt>
      <trkpt lat="42.907222" lon="-76.077062">
        <ele>263.195633</ele>
        <time>2026-05-30T09:26:37.000Z</time>
      </trkpt>
      <trkpt lat="42.907813" lon="-76.076262">
        <ele>262.751558</ele>
        <time>2026-05-30T09:26:46.000Z</time>
      </trkpt>
      <trkpt lat="42.908087" lon="-76.075857">
        <ele>262.540565</ele>
        <time>2026-05-30T09:26:50.000Z</time>
      </trkpt>
      <trkpt lat="42.908837" lon="-76.07438">
        <ele>258.837381</ele>
        <time>2026-05-30T09:27:05.000Z</time>
      </trkpt>
      <trkpt lat="42.910325" lon="-76.072277">
        <ele>250.667316</ele>
        <time>2026-05-30T09:27:29.000Z</time>
      </trkpt>
      <trkpt lat="42.910694" lon="-76.071756">
        <ele>248.888302</ele>
        <time>2026-05-30T09:27:35.000Z</time>
      </trkpt>
      <trkpt lat="42.911273" lon="-76.07094">
        <ele>246.869529</ele>
        <time>2026-05-30T09:27:44.000Z</time>
      </trkpt>
      <trkpt lat="42.911358" lon="-76.070825">
        <ele>246.610425</ele>
        <time>2026-05-30T09:27:45.000Z</time>
      </trkpt>
      <trkpt lat="42.912034" lon="-76.069895">
        <ele>244.898023</ele>
        <time>2026-05-30T09:27:56.000Z</time>
      </trkpt>
      <trkpt lat="42.912215" lon="-76.069691">
        <ele>244.768249</ele>
        <time>2026-05-30T09:27:59.000Z</time>
      </trkpt>
      <trkpt lat="42.912696" lon="-76.069282">
        <ele>244.440802</ele>
        <time>2026-05-30T09:28:05.000Z</time>
      </trkpt>
      <trkpt lat="42.913759" lon="-76.068492">
        <ele>243.265087</ele>
        <time>2026-05-30T09:28:18.000Z</time>
      </trkpt>
      <trkpt lat="42.916" lon="-76.066555">
        <ele>239.638443</ele>
        <time>2026-05-30T09:28:47.000Z</time>
      </trkpt>
      <trkpt lat="42.916274" lon="-76.066252">
        <ele>239.185428</ele>
        <time>2026-05-30T09:28:51.000Z</time>
      </trkpt>
      <trkpt lat="42.917098" lon="-76.065126">
        <ele>239.66953</ele>
        <time>2026-05-30T09:29:04.000Z</time>
      </trkpt>
      <trkpt lat="42.917279" lon="-76.064926">
        <ele>239.78412</ele>
        <time>2026-05-30T09:29:07.000Z</time>
      </trkpt>
      <trkpt lat="42.917484" lon="-76.064736">
        <ele>239.899235</ele>
        <time>2026-05-30T09:29:10.000Z</time>
      </trkpt>
      <trkpt lat="42.917804" lon="-76.06447">
        <ele>239.977524</ele>
        <time>2026-05-30T09:29:14.000Z</time>
      </trkpt>
      <trkpt lat="42.918227" lon="-76.064255">
        <ele>239.926632</ele>
        <time>2026-05-30T09:29:19.000Z</time>
      </trkpt>
      <trkpt lat="42.918528" lon="-76.064109">
        <ele>239.889452</ele>
        <time>2026-05-30T09:29:23.000Z</time>
      </trkpt>
      <trkpt lat="42.918846" lon="-76.064004">
        <ele>239.851248</ele>
        <time>2026-05-30T09:29:27.000Z</time>
      </trkpt>
      <trkpt lat="42.921153" lon="-76.063588">
        <ele>236.554291</ele>
        <time>2026-05-30T09:29:53.000Z</time>
      </trkpt>
      <trkpt lat="42.921914" lon="-76.063503">
        <ele>235.079526</ele>
        <time>2026-05-30T09:30:01.000Z</time>
      </trkpt>
      <trkpt lat="42.923349" lon="-76.063749">
        <ele>232.29414</ele>
        <time>2026-05-30T09:30:17.000Z</time>
      </trkpt>
      <trkpt lat="42.92508" lon="-76.063702">
        <ele>229.405508</ele>
        <time>2026-05-30T09:30:36.000Z</time>
      </trkpt>
      <trkpt lat="42.926439" lon="-76.063849">
        <ele>227.88834</ele>
        <time>2026-05-30T09:30:51.000Z</time>
      </trkpt>
      <trkpt lat="42.927191" lon="-76.063871">
        <ele>227.21489</ele>
        <time>2026-05-30T09:30:59.000Z</time>
      </trkpt>
      <trkpt lat="42.928668" lon="-76.063828">
        <ele>225.997925</ele>
        <time>2026-05-30T09:31:15.000Z</time>
      </trkpt>
      <trkpt lat="42.929013" lon="-76.063806">
        <ele>225.774659</ele>
        <time>2026-05-30T09:31:19.000Z</time>
      </trkpt>
      <trkpt lat="42.929393" lon="-76.06387">
        <ele>225.513465</ele>
        <time>2026-05-30T09:31:23.000Z</time>
      </trkpt>
      <trkpt lat="42.929774" lon="-76.063972">
        <ele>225.253861</ele>
        <time>2026-05-30T09:31:27.000Z</time>
      </trkpt>
      <trkpt lat="42.930265" lon="-76.064162">
        <ele>225.114946</ele>
        <time>2026-05-30T09:31:33.000Z</time>
      </trkpt>
      <trkpt lat="42.930415" lon="-76.06423">
        <ele>225.184933</ele>
        <time>2026-05-30T09:31:35.000Z</time>
      </trkpt>
      <trkpt lat="42.930578" lon="-76.064285">
        <ele>225.264055</ele>
        <time>2026-05-30T09:31:37.000Z</time>
      </trkpt>
      <trkpt lat="42.932513" lon="-76.065014">
        <ele>226.607199</ele>
        <time>2026-05-30T09:31:59.000Z</time>
      </trkpt>
      <trkpt lat="42.933956" lon="-76.065471">
        <ele>228.172966</ele>
        <time>2026-05-30T09:32:15.000Z</time>
      </trkpt>
      <trkpt lat="42.934711" lon="-76.065692">
        <ele>228.995826</ele>
        <time>2026-05-30T09:32:24.000Z</time>
      </trkpt>
      <trkpt lat="42.938072" lon="-76.066561">
        <ele>230.562969</ele>
        <time>2026-05-30T09:33:02.000Z</time>
      </trkpt>
      <trkpt lat="42.93907" lon="-76.06679">
        <ele>230.334654</ele>
        <time>2026-05-30T09:33:13.000Z</time>
      </trkpt>
      <trkpt lat="42.940093" lon="-76.06695">
        <ele>229.036589</ele>
        <time>2026-05-30T09:33:24.000Z</time>
      </trkpt>
      <trkpt lat="42.941265" lon="-76.067038">
        <ele>227.179314</ele>
        <time>2026-05-30T09:33:37.000Z</time>
      </trkpt>
      <trkpt lat="42.942183" lon="-76.067103">
        <ele>225.507185</ele>
        <time>2026-05-30T09:33:47.000Z</time>
      </trkpt>
      <trkpt lat="42.942654" lon="-76.067163">
        <ele>224.924552</ele>
        <time>2026-05-30T09:33:52.000Z</time>
      </trkpt>
      <trkpt lat="42.942884" lon="-76.067236">
        <ele>224.839432</ele>
        <time>2026-05-30T09:33:55.000Z</time>
      </trkpt>
      <trkpt lat="42.943316" lon="-76.067474">
        <ele>224.678974</ele>
        <time>2026-05-30T09:34:00.000Z</time>
      </trkpt>
      <trkpt lat="42.944405" lon="-76.068054">
        <ele>224.087712</ele>
        <time>2026-05-30T09:34:13.000Z</time>
      </trkpt>
      <trkpt lat="42.944744" lon="-76.068235">
        <ele>223.719674</ele>
        <time>2026-05-30T09:34:17.000Z</time>
      </trkpt>
      <trkpt lat="42.945133" lon="-76.068396">
        <ele>223.305298</ele>
        <time>2026-05-30T09:34:22.000Z</time>
      </trkpt>
      <trkpt lat="42.945578" lon="-76.068537">
        <ele>222.843128</ele>
        <time>2026-05-30T09:34:27.000Z</time>
      </trkpt>
      <trkpt lat="42.946544" lon="-76.068633">
        <ele>221.396303</ele>
        <time>2026-05-30T09:34:38.000Z</time>
      </trkpt>
      <trkpt lat="42.948747" lon="-76.068792">
        <ele>218.264825</ele>
        <time>2026-05-30T09:35:03.000Z</time>
      </trkpt>
      <trkpt lat="42.949667" lon="-76.068852">
        <ele>217.43569</ele>
        <time>2026-05-30T09:35:13.000Z</time>
      </trkpt>
      <trkpt lat="42.950596" lon="-76.068929">
        <ele>217.508767</ele>
        <time>2026-05-30T09:35:23.000Z</time>
      </trkpt>
      <trkpt lat="42.95108" lon="-76.068974">
        <ele>217.547198</ele>
        <time>2026-05-30T09:35:28.000Z</time>
      </trkpt>
      <trkpt lat="42.951466" lon="-76.069011">
        <ele>217.303997</ele>
        <time>2026-05-30T09:35:32.000Z</time>
      </trkpt>
      <trkpt lat="42.951545" lon="-76.069015">
        <ele>217.22721</ele>
        <time>2026-05-30T09:35:33.000Z</time>
      </trkpt>
      <trkpt lat="42.951649" lon="-76.069016">
        <ele>217.078609</ele>
        <time>2026-05-30T09:35:34.000Z</time>
      </trkpt>
      <trkpt lat="42.952282" lon="-76.069063">
        <ele>216.310854</ele>
        <time>2026-05-30T09:35:41.000Z</time>
      </trkpt>
      <trkpt lat="42.952398" lon="-76.069072">
        <ele>216.16732</ele>
        <time>2026-05-30T09:35:42.000Z</time>
      </trkpt>
      <trkpt lat="42.952811" lon="-76.069113">
        <ele>215.645052</ele>
        <time>2026-05-30T09:35:47.000Z</time>
      </trkpt>
      <trkpt lat="42.953088" lon="-76.069124">
        <ele>215.29875</ele>
        <time>2026-05-30T09:35:50.000Z</time>
      </trkpt>
      <trkpt lat="42.953374" lon="-76.069145">
        <ele>214.86347</ele>
        <time>2026-05-30T09:35:53.000Z</time>
      </trkpt>
      <trkpt lat="42.953415" lon="-76.069141">
        <ele>214.803254</ele>
        <time>2026-05-30T09:35:53.000Z</time>
      </trkpt>
      <trkpt lat="42.954147" lon="-76.069192">
        <ele>213.711392</ele>
        <time>2026-05-30T09:36:01.000Z</time>
      </trkpt>
      <trkpt lat="42.956523" lon="-76.069271">
        <ele>212.524028</ele>
        <time>2026-05-30T09:36:27.000Z</time>
      </trkpt>
      <trkpt lat="42.957462" lon="-76.069336">
        <ele>215.239738</ele>
        <time>2026-05-30T09:36:37.000Z</time>
      </trkpt>
      <trkpt lat="42.959041" lon="-76.06946">
        <ele>219.550539</ele>
        <time>2026-05-30T09:36:55.000Z</time>
      </trkpt>
      <trkpt lat="42.959374" lon="-76.069516">
        <ele>220.131261</ele>
        <time>2026-05-30T09:36:59.000Z</time>
      </trkpt>
      <trkpt lat="42.959791" lon="-76.069607">
        <ele>220.847157</ele>
        <time>2026-05-30T09:37:04.000Z</time>
      </trkpt>
      <trkpt lat="42.960914" lon="-76.070044">
        <ele>219.652655</ele>
        <time>2026-05-30T09:37:17.000Z</time>
      </trkpt>
      <trkpt lat="42.962329" lon="-76.07056">
        <ele>215.871003</ele>
        <time>2026-05-30T09:37:33.000Z</time>
      </trkpt>
      <trkpt lat="42.962679" lon="-76.070682">
        <ele>215.06536</ele>
        <time>2026-05-30T09:37:37.000Z</time>
      </trkpt>
      <trkpt lat="42.965454" lon="-76.071606">
        <ele>209.968476</ele>
        <time>2026-05-30T09:38:09.000Z</time>
      </trkpt>
      <trkpt lat="42.965692" lon="-76.07044">
        <ele>207.813086</ele>
        <time>2026-05-30T09:38:19.000Z</time>
      </trkpt>
      <trkpt lat="42.965726" lon="-76.070335">
        <ele>207.611687</ele>
        <time>2026-05-30T09:38:20.000Z</time>
      </trkpt>
      <trkpt lat="42.965764" lon="-76.070227">
        <ele>207.401762</ele>
        <time>2026-05-30T09:38:21.000Z</time>
      </trkpt>
      <trkpt lat="42.965867" lon="-76.070087">
        <ele>207.05629</ele>
        <time>2026-05-30T09:38:23.000Z</time>
      </trkpt>
      <trkpt lat="42.965989" lon="-76.069972">
        <ele>206.68237</ele>
        <time>2026-05-30T09:38:25.000Z</time>
      </trkpt>
      <trkpt lat="42.966394" lon="-76.069835">
        <ele>205.697699</ele>
        <time>2026-05-30T09:38:30.000Z</time>
      </trkpt>
      <trkpt lat="42.966575" lon="-76.069808">
        <ele>205.370331216</ele>
        <time>2026-05-30T09:38:32.000Z</time>
      </trkpt>
      <trkpt lat="42.966695" lon="-76.069856">
        <ele>205.145520931</ele>
        <time>2026-05-30T09:38:33.000Z</time>
      </trkpt>
      <trkpt lat="42.966829" lon="-76.069969">
        <ele>204.862412995</ele>
        <time>2026-05-30T09:38:35.000Z</time>
      </trkpt>
      <trkpt lat="42.967469" lon="-76.0707">
        <ele>203.362715329</ele>
        <time>2026-05-30T09:38:44.000Z</time>
      </trkpt>
      <trkpt lat="42.967592" lon="-76.070875">
        <ele>203.043468674</ele>
        <time>2026-05-30T09:38:46.000Z</time>
      </trkpt>
      <trkpt lat="42.967653" lon="-76.071106">
        <ele>202.720368187</ele>
        <time>2026-05-30T09:38:48.000Z</time>
      </trkpt>
    </trkseg>
  </trk>
</gpx>

<!--
Performance optimized by W3 Total Cache. Learn more: https://www.boldgrid.com/w3-total-cache/?utm_source=w3tc&utm_medium=footer_comment&utm_campaign=free_plugin

Page Caching using Disk: Enhanced{w3tc_pagecache_reject_reason} 

Served from: www.aquabike.world @ 2026-05-10 01:41:46 by W3 Total Cache
-->